sensor_id;sensor_type;location;lat;lon;timestamp;temperature;humidity
75210;DHT22;63796;53.136;14.882;2022-11-20T00:01:15;2.20;99.90
75210;DHT22;63796;53.136;14.882;2022-11-20T00:03:46;2.30;99.90
75210;DHT22;63796;53.136;14.882;2022-11-20T00:06:16;2.30;99.90
75210;DHT22;63796;53.136;14.882;2022-11-20T00:08:45;2.30;99.90
75210;DHT22;63796;53.136;14.882;2022-11-20T00:11:15;2.30;99.90
75210;DHT22;63796;53.136;14.882;2022-11-20T00:13:44;2.20;99.90
75210;DHT22;63796;53.136;14.882;2022-11-20T00:16:15;2.20;99.90
75210;DHT22;63796;53.136;14.882;2022-11-20T00:18:43;2.20;99.90
75210;DHT22;63796;53.136;14.882;2022-11-20T00:21:13;2.20;99.90
75210;DHT22;63796;53.136;14.882;2022-11-20T00:23:45;2.10;99.90
75210;DHT22;63796;53.136;14.882;2022-11-20T00:26:15;2.10;99.90
75210;DHT22;63796;53.136;14.882;2022-11-20T00:28:44;2.20;99.90
75210;DHT22;63796;53.136;14.882;2022-11-20T00:31:14;2.30;99.90
75210;DHT22;63796;53.136;14.882;2022-11-20T00:33:43;2.20;99.90
75210;DHT22;63796;53.136;14.882;2022-11-20T00:36:13;2.20;99.90
75210;DHT22;63796;53.136;14.882;2022-11-20T00:38:42;2.20;99.90
75210;DHT22;63796;53.136;14.882;2022-11-20T00:41:12;2.10;99.90
75210;DHT22;63796;53.136;14.882;2022-11-20T00:43:41;2.20;99.90
75210;DHT22;63796;53.136;14.882;2022-11-20T00:46:17;2.30;99.90
75210;DHT22;63796;53.136;14.882;2022-11-20T00:48:46;2.30;99.90
75210;DHT22;63796;53.136;14.882;2022-11-20T00:51:15;2.30;99.90
75210;DHT22;63796;53.136;14.882;2022-11-20T00:53:44;2.30;99.90
75210;DHT22;63796;53.136;14.882;2022-11-20T00:56:13;2.30;99.90
75210;DHT22;63796;53.136;14.882;2022-11-20T00:58:44;2.20;99.90
75210;DHT22;63796;53.136;14.882;2022-11-20T01:01:21;2.20;99.90
75210;DHT22;63796;53.136;14.882;2022-11-20T01:03:49;2.20;99.90
75210;DHT22;63796;53.136;14.882;2022-11-20T01:06:19;2.20;99.90
75210;DHT22;63796;53.136;14.882;2022-11-20T01:08:57;2.20;99.90
75210;DHT22;63796;53.136;14.882;2022-11-20T01:11:34;2.30;99.90
75210;DHT22;63796;53.136;14.882;2022-11-20T01:14:01;2.30;99.90
75210;DHT22;63796;53.136;14.882;2022-11-20T01:16:32;2.20;99.90
75210;DHT22;63796;53.136;14.882;2022-11-20T01:19:03;2.20;99.90
75210;DHT22;63796;53.136;14.882;2022-11-20T01:21:37;2.20;99.90
75210;DHT22;63796;53.136;14.882;2022-11-20T01:24:07;2.10;99.90
75210;DHT22;63796;53.136;14.882;2022-11-20T01:26:38;2.10;99.90
75210;DHT22;63796;53.136;14.882;2022-11-20T01:29:06;2.00;99.90
75210;DHT22;63796;53.136;14.882;2022-11-20T01:31:36;2.10;99.90
75210;DHT22;63796;53.136;14.882;2022-11-20T01:34:06;2.20;99.90
75210;DHT22;63796;53.136;14.882;2022-11-20T01:36:36;2.10;99.90
75210;DHT22;63796;53.136;14.882;2022-11-20T01:39:12;2.10;99.90
75210;DHT22;63796;53.136;14.882;2022-11-20T01:41:42;2.10;99.90
75210;DHT22;63796;53.136;14.882;2022-11-20T01:44:52;2.10;99.90
75210;DHT22;63796;53.136;14.882;2022-11-20T01:47:27;2.10;99.90
75210;DHT22;63796;53.136;14.882;2022-11-20T01:52:45;2.10;99.90
75210;DHT22;63796;53.136;14.882;2022-11-20T01:55:20;2.00;99.90
75210;DHT22;63796;53.136;14.882;2022-11-20T01:57:50;2.00;99.90
75210;DHT22;63796;53.136;14.882;2022-11-20T02:00:19;2.00;99.90
75210;DHT22;63796;53.136;14.882;2022-11-20T02:02:52;2.10;99.90
75210;DHT22;63796;53.136;14.882;2022-11-20T02:05:41;2.00;99.90
75210;DHT22;63796;53.136;14.882;2022-11-20T02:08:13;2.00;99.90
75210;DHT22;63796;53.136;14.882;2022-11-20T02:13:16;2.00;99.90
75210;DHT22;63796;53.136;14.882;2022-11-20T02:16:02;2.00;99.90
75210;DHT22;63796;53.136;14.882;2022-11-20T02:18:30;1.90;99.90
75210;DHT22;63796;53.136;14.882;2022-11-20T02:21:01;1.90;99.90
75210;DHT22;63796;53.136;14.882;2022-11-20T02:26:39;1.90;99.90
75210;DHT22;63796;53.136;14.882;2022-11-20T02:29:08;1.90;99.90
75210;DHT22;63796;53.136;14.882;2022-11-20T02:31:37;1.90;99.90
75210;DHT22;63796;53.136;14.882;2022-11-20T02:34:06;1.90;99.90
75210;DHT22;63796;53.136;14.882;2022-11-20T02:36:34;2.00;99.90
75210;DHT22;63796;53.136;14.882;2022-11-20T02:39:03;2.00;99.90
75210;DHT22;63796;53.136;14.882;2022-11-20T02:41:33;2.00;99.90
75210;DHT22;63796;53.136;14.882;2022-11-20T02:44:00;2.00;99.90
75210;DHT22;63796;53.136;14.882;2022-11-20T02:46:28;2.00;99.90
75210;DHT22;63796;53.136;14.882;2022-11-20T02:48:55;2.00;99.90
75210;DHT22;63796;53.136;14.882;2022-11-20T02:51:22;2.00;99.90
75210;DHT22;63796;53.136;14.882;2022-11-20T02:53:49;1.90;99.90
75210;DHT22;63796;53.136;14.882;2022-11-20T02:56:16;2.00;99.90
75210;DHT22;63796;53.136;14.882;2022-11-20T02:58:43;1.90;99.90
75210;DHT22;63796;53.136;14.882;2022-11-20T03:01:10;1.90;99.90
75210;DHT22;63796;53.136;14.882;2022-11-20T03:03:37;2.00;99.90
75210;DHT22;63796;53.136;14.882;2022-11-20T03:06:04;1.90;99.90
75210;DHT22;63796;53.136;14.882;2022-11-20T03:08:31;2.00;99.90
75210;DHT22;63796;53.136;14.882;2022-11-20T03:11:08;2.00;99.90
75210;DHT22;63796;53.136;14.882;2022-11-20T03:13:34;1.90;99.90
75210;DHT22;63796;53.136;14.882;2022-11-20T03:16:11;1.90;99.90
75210;DHT22;63796;53.136;14.882;2022-11-20T03:18:40;2.00;99.90
75210;DHT22;63796;53.136;14.882;2022-11-20T03:21:09;2.00;99.90
75210;DHT22;63796;53.136;14.882;2022-11-20T03:23:37;1.90;99.90
75210;DHT22;63796;53.136;14.882;2022-11-20T03:28:49;1.90;99.90
75210;DHT22;63796;53.136;14.882;2022-11-20T03:31:20;1.90;99.90
75210;DHT22;63796;53.136;14.882;2022-11-20T03:33:49;1.80;99.90
75210;DHT22;63796;53.136;14.882;2022-11-20T03:36:18;1.90;99.90
75210;DHT22;63796;53.136;14.882;2022-11-20T03:38:46;1.80;99.90
75210;DHT22;63796;53.136;14.882;2022-11-20T03:41:24;1.90;99.90
75210;DHT22;63796;53.136;14.882;2022-11-20T03:44:00;1.90;99.90
75210;DHT22;63796;53.136;14.882;2022-11-20T03:46:29;1.90;99.90
75210;DHT22;63796;53.136;14.882;2022-11-20T03:48:56;1.90;99.90
75210;DHT22;63796;53.136;14.882;2022-11-20T03:51:30;1.90;99.90
75210;DHT22;63796;53.136;14.882;2022-11-20T03:54:02;1.90;99.90
75210;DHT22;63796;53.136;14.882;2022-11-20T03:56:33;1.90;99.90
75210;DHT22;63796;53.136;14.882;2022-11-20T03:59:02;1.90;99.90
75210;DHT22;63796;53.136;14.882;2022-11-20T04:01:35;1.80;99.90
75210;DHT22;63796;53.136;14.882;2022-11-20T04:04:03;1.80;99.90
75210;DHT22;63796;53.136;14.882;2022-11-20T04:06:36;1.70;99.90
75210;DHT22;63796;53.136;14.882;2022-11-20T04:09:05;1.70;99.90
75210;DHT22;63796;53.136;14.882;2022-11-20T04:11:35;1.80;99.90
75210;DHT22;63796;53.136;14.882;2022-11-20T04:14:04;1.70;99.90
75210;DHT22;63796;53.136;14.882;2022-11-20T04:16:34;1.70;99.90
75210;DHT22;63796;53.136;14.882;2022-11-20T04:19:05;1.80;99.90
75210;DHT22;63796;53.136;14.882;2022-11-20T04:21:34;1.70;99.90
75210;DHT22;63796;53.136;14.882;2022-11-20T04:24:01;1.70;99.90
75210;DHT22;63796;53.136;14.882;2022-11-20T04:26:29;1.60;99.90
75210;DHT22;63796;53.136;14.882;2022-11-20T04:28:56;1.60;99.90
75210;DHT22;63796;53.136;14.882;2022-11-20T04:31:26;1.50;99.90
75210;DHT22;63796;53.136;14.882;2022-11-20T04:33:54;1.50;99.90
75210;DHT22;63796;53.136;14.882;2022-11-20T04:36:24;1.50;99.90
75210;DHT22;63796;53.136;14.882;2022-11-20T04:39:00;1.50;99.90
75210;DHT22;63796;53.136;14.882;2022-11-20T04:41:32;1.40;99.90
75210;DHT22;63796;53.136;14.882;2022-11-20T04:44:03;1.40;99.90
75210;DHT22;63796;53.136;14.882;2022-11-20T04:46:40;1.50;99.90
75210;DHT22;63796;53.136;14.882;2022-11-20T04:49:05;1.40;99.90
75210;DHT22;63796;53.136;14.882;2022-11-20T04:51:33;1.40;99.90
75210;DHT22;63796;53.136;14.882;2022-11-20T04:54:00;1.50;99.90
75210;DHT22;63796;53.136;14.882;2022-11-20T04:56:27;1.50;99.90
75210;DHT22;63796;53.136;14.882;2022-11-20T04:58:54;1.50;99.90
75210;DHT22;63796;53.136;14.882;2022-11-20T05:01:23;1.60;99.90
75210;DHT22;63796;53.136;14.882;2022-11-20T05:03:50;1.60;99.90
75210;DHT22;63796;53.136;14.882;2022-11-20T05:06:22;1.60;99.90
75210;DHT22;63796;53.136;14.882;2022-11-20T05:08:50;1.70;99.90
75210;DHT22;63796;53.136;14.882;2022-11-20T05:11:20;1.70;99.90
75210;DHT22;63796;53.136;14.882;2022-11-20T05:13:48;1.70;99.90
75210;DHT22;63796;53.136;14.882;2022-11-20T05:16:18;1.70;99.90
75210;DHT22;63796;53.136;14.882;2022-11-20T05:18:47;1.80;99.90
75210;DHT22;63796;53.136;14.882;2022-11-20T05:21:14;1.70;99.90
75210;DHT22;63796;53.136;14.882;2022-11-20T05:23:42;1.70;99.90
75210;DHT22;63796;53.136;14.882;2022-11-20T05:26:20;1.60;99.90
75210;DHT22;63796;53.136;14.882;2022-11-20T05:28:45;1.70;99.90
75210;DHT22;63796;53.136;14.882;2022-11-20T05:31:15;1.70;99.90
75210;DHT22;63796;53.136;14.882;2022-11-20T05:33:44;1.70;99.90
75210;DHT22;63796;53.136;14.882;2022-11-20T05:36:12;1.80;99.90
75210;DHT22;63796;53.136;14.882;2022-11-20T05:38:41;1.70;99.90
75210;DHT22;63796;53.136;14.882;2022-11-20T05:41:11;1.70;99.90
75210;DHT22;63796;53.136;14.882;2022-11-20T05:43:42;1.80;99.90
75210;DHT22;63796;53.136;14.882;2022-11-20T05:46:12;1.70;99.90
75210;DHT22;63796;53.136;14.882;2022-11-20T05:48:41;1.70;99.90
75210;DHT22;63796;53.136;14.882;2022-11-20T05:51:14;1.60;99.90
75210;DHT22;63796;53.136;14.882;2022-11-20T05:53:44;1.60;99.90
75210;DHT22;63796;53.136;14.882;2022-11-20T05:56:13;1.60;99.90
75210;DHT22;63796;53.136;14.882;2022-11-20T05:58:41;1.60;99.90
75210;DHT22;63796;53.136;14.882;2022-11-20T06:01:11;1.60;99.90
75210;DHT22;63796;53.136;14.882;2022-11-20T06:03:49;1.60;99.90
75210;DHT22;63796;53.136;14.882;2022-11-20T06:06:18;1.50;99.90
75210;DHT22;63796;53.136;14.882;2022-11-20T06:08:45;1.50;99.90
75210;DHT22;63796;53.136;14.882;2022-11-20T06:11:14;1.40;99.90
75210;DHT22;63796;53.136;14.882;2022-11-20T06:13:42;1.20;99.90
75210;DHT22;63796;53.136;14.882;2022-11-20T06:16:12;1.30;99.90
75210;DHT22;63796;53.136;14.882;2022-11-20T06:18:41;1.30;99.90
75210;DHT22;63796;53.136;14.882;2022-11-20T06:21:10;1.30;99.90
75210;DHT22;63796;53.136;14.882;2022-11-20T06:23:39;1.30;99.90
75210;DHT22;63796;53.136;14.882;2022-11-20T06:26:08;1.30;99.90
75210;DHT22;63796;53.136;14.882;2022-11-20T06:28:36;1.40;99.90
75210;DHT22;63796;53.136;14.882;2022-11-20T06:31:05;1.30;99.90
75210;DHT22;63796;53.136;14.882;2022-11-20T06:33:33;1.20;99.90
75210;DHT22;63796;53.136;14.882;2022-11-20T06:36:00;1.30;99.90
75210;DHT22;63796;53.136;14.882;2022-11-20T06:38:28;1.30;99.90
75210;DHT22;63796;53.136;14.882;2022-11-20T06:40:55;1.20;99.90
75210;DHT22;63796;53.136;14.882;2022-11-20T06:43:22;1.20;99.90
75210;DHT22;63796;53.136;14.882;2022-11-20T06:45:53;1.30;99.90
75210;DHT22;63796;53.136;14.882;2022-11-20T06:48:22;1.20;99.90
75210;DHT22;63796;53.136;14.882;2022-11-20T06:50:50;1.30;99.90
75210;DHT22;63796;53.136;14.882;2022-11-20T06:53:17;1.20;99.90
75210;DHT22;63796;53.136;14.882;2022-11-20T06:55:45;1.30;99.90
75210;DHT22;63796;53.136;14.882;2022-11-20T06:58:14;1.30;99.90
75210;DHT22;63796;53.136;14.882;2022-11-20T07:00:41;1.30;99.90
75210;DHT22;63796;53.136;14.882;2022-11-20T07:03:12;1.30;99.90
75210;DHT22;63796;53.136;14.882;2022-11-20T07:05:39;1.30;99.90
75210;DHT22;63796;53.136;14.882;2022-11-20T07:08:06;1.30;99.90
75210;DHT22;63796;53.136;14.882;2022-11-20T07:10:33;1.30;99.90
75210;DHT22;63796;53.136;14.882;2022-11-20T07:13:00;1.40;99.90
75210;DHT22;63796;53.136;14.882;2022-11-20T07:15:28;1.40;99.90
75210;DHT22;63796;53.136;14.882;2022-11-20T07:17:54;1.40;99.90
75210;DHT22;63796;53.136;14.882;2022-11-20T07:20:21;1.50;99.90
75210;DHT22;63796;53.136;14.882;2022-11-20T07:22:53;1.50;99.90
75210;DHT22;63796;53.136;14.882;2022-11-20T07:25:22;1.50;99.90
75210;DHT22;63796;53.136;14.882;2022-11-20T07:27:50;1.50;99.90
75210;DHT22;63796;53.136;14.882;2022-11-20T07:30:17;1.40;99.90
75210;DHT22;63796;53.136;14.882;2022-11-20T07:32:52;1.40;99.90
75210;DHT22;63796;53.136;14.882;2022-11-20T07:35:21;1.60;99.90
75210;DHT22;63796;53.136;14.882;2022-11-20T07:37:48;1.60;99.90
75210;DHT22;63796;53.136;14.882;2022-11-20T07:40:15;1.50;99.90
75210;DHT22;63796;53.136;14.882;2022-11-20T07:42:54;1.50;99.90
75210;DHT22;63796;53.136;14.882;2022-11-20T07:45:20;1.40;99.90
75210;DHT22;63796;53.136;14.882;2022-11-20T07:47:47;1.40;99.90
75210;DHT22;63796;53.136;14.882;2022-11-20T07:50:15;1.30;99.90
75210;DHT22;63796;53.136;14.882;2022-11-20T07:52:42;1.40;99.90
75210;DHT22;63796;53.136;14.882;2022-11-20T07:55:12;1.40;99.90
75210;DHT22;63796;53.136;14.882;2022-11-20T07:57:39;1.40;99.90
75210;DHT22;63796;53.136;14.882;2022-11-20T08:00:08;1.50;99.90
75210;DHT22;63796;53.136;14.882;2022-11-20T08:02:40;1.40;99.90
75210;DHT22;63796;53.136;14.882;2022-11-20T08:05:08;1.50;99.90
75210;DHT22;63796;53.136;14.882;2022-11-20T08:07:40;1.50;99.90
75210;DHT22;63796;53.136;14.882;2022-11-20T08:10:12;1.60;99.90
75210;DHT22;63796;53.136;14.882;2022-11-20T08:12:48;1.60;99.90
75210;DHT22;63796;53.136;14.882;2022-11-20T08:15:35;1.60;99.90
75210;DHT22;63796;53.136;14.882;2022-11-20T08:18:08;1.70;99.90
75210;DHT22;63796;53.136;14.882;2022-11-20T08:20:40;1.60;99.90
75210;DHT22;63796;53.136;14.882;2022-11-20T08:23:07;1.50;99.90
75210;DHT22;63796;53.136;14.882;2022-11-20T08:25:35;1.60;99.90
75210;DHT22;63796;53.136;14.882;2022-11-20T08:28:06;1.60;99.90
75210;DHT22;63796;53.136;14.882;2022-11-20T08:30:35;1.60;99.90
75210;DHT22;63796;53.136;14.882;2022-11-20T08:33:05;1.60;99.90
75210;DHT22;63796;53.136;14.882;2022-11-20T08:35:34;1.60;99.90
75210;DHT22;63796;53.136;14.882;2022-11-20T08:38:03;1.70;99.90
75210;DHT22;63796;53.136;14.882;2022-11-20T08:40:31;1.60;99.90
75210;DHT22;63796;53.136;14.882;2022-11-20T08:42:58;1.70;99.90
75210;DHT22;63796;53.136;14.882;2022-11-20T08:45:25;1.60;99.90
75210;DHT22;63796;53.136;14.882;2022-11-20T08:47:51;1.70;99.90
75210;DHT22;63796;53.136;14.882;2022-11-20T08:50:19;1.80;99.90
75210;DHT22;63796;53.136;14.882;2022-11-20T08:52:45;1.90;99.90
75210;DHT22;63796;53.136;14.882;2022-11-20T08:55:12;1.80;99.90
75210;DHT22;63796;53.136;14.882;2022-11-20T08:57:39;1.80;99.90
75210;DHT22;63796;53.136;14.882;2022-11-20T09:00:07;1.80;99.90
75210;DHT22;63796;53.136;14.882;2022-11-20T09:02:35;1.80;99.90
75210;DHT22;63796;53.136;14.882;2022-11-20T09:05:02;1.80;99.90
75210;DHT22;63796;53.136;14.882;2022-11-20T09:07:29;1.80;99.90
75210;DHT22;63796;53.136;14.882;2022-11-20T09:09:56;1.80;99.90
75210;DHT22;63796;53.136;14.882;2022-11-20T09:12:23;1.70;99.90
75210;DHT22;63796;53.136;14.882;2022-11-20T09:14:50;1.70;99.90
75210;DHT22;63796;53.136;14.882;2022-11-20T09:17:17;1.80;99.90
75210;DHT22;63796;53.136;14.882;2022-11-20T09:19:46;1.80;99.90
75210;DHT22;63796;53.136;14.882;2022-11-20T09:22:13;1.80;99.90
75210;DHT22;63796;53.136;14.882;2022-11-20T09:24:40;1.80;99.90
75210;DHT22;63796;53.136;14.882;2022-11-20T09:27:07;1.80;99.90
75210;DHT22;63796;53.136;14.882;2022-11-20T09:29:34;1.70;99.90
75210;DHT22;63796;53.136;14.882;2022-11-20T09:32:01;1.70;99.90
75210;DHT22;63796;53.136;14.882;2022-11-20T09:34:28;1.70;99.90
75210;DHT22;63796;53.136;14.882;2022-11-20T09:36:55;1.70;99.90
75210;DHT22;63796;53.136;14.882;2022-11-20T09:39:22;1.80;99.90
75210;DHT22;63796;53.136;14.882;2022-11-20T09:41:55;1.80;99.90
75210;DHT22;63796;53.136;14.882;2022-11-20T09:45:08;1.80;99.90
75210;DHT22;63796;53.136;14.882;2022-11-20T09:47:55;1.80;99.90
75210;DHT22;63796;53.136;14.882;2022-11-20T09:53:53;1.70;99.90
75210;DHT22;63796;53.136;14.882;2022-11-20T09:56:39;1.40;99.90
75210;DHT22;63796;53.136;14.882;2022-11-20T12:03:14;2.40;99.90
75210;DHT22;63796;53.136;14.882;2022-11-20T12:13:48;2.30;99.90
75210;DHT22;63796;53.136;14.882;2022-11-20T12:16:19;2.30;99.90
75210;DHT22;63796;53.136;14.882;2022-11-20T12:18:49;2.40;99.90
75210;DHT22;63796;53.136;14.882;2022-11-20T12:24:25;2.30;99.90
75210;DHT22;63796;53.136;14.882;2022-11-20T12:29:57;2.00;99.90
75210;DHT22;63796;53.136;14.882;2022-11-20T12:32:48;1.80;99.90
75210;DHT22;63796;53.136;14.882;2022-11-20T12:35:40;1.90;99.90
75210;DHT22;63796;53.136;14.882;2022-11-20T13:29:07;1.70;99.90
75210;DHT22;63796;53.136;14.882;2022-11-20T13:39:00;1.70;99.90
75210;DHT22;63796;53.136;14.882;2022-11-20T13:41:37;1.60;99.90
75210;DHT22;63796;53.136;14.882;2022-11-20T13:44:23;1.50;99.90
75210;DHT22;63796;53.136;14.882;2022-11-20T13:46:47;1.50;99.90
75210;DHT22;63796;53.136;14.882;2022-11-20T13:49:18;1.50;99.90
75210;DHT22;63796;53.136;14.882;2022-11-20T13:51:49;1.50;99.90
75210;DHT22;63796;53.136;14.882;2022-11-20T13:54:27;1.50;99.90
75210;DHT22;63796;53.136;14.882;2022-11-20T14:03:15;1.40;99.90
75210;DHT22;63796;53.136;14.882;2022-11-20T14:05:50;1.40;99.90
75210;DHT22;63796;53.136;14.882;2022-11-20T14:08:23;1.40;99.90
75210;DHT22;63796;53.136;14.882;2022-11-20T14:11:06;1.40;99.90
75210;DHT22;63796;53.136;14.882;2022-11-20T14:16:36;1.50;99.90
75210;DHT22;63796;53.136;14.882;2022-11-20T14:22:06;1.40;99.90
75210;DHT22;63796;53.136;14.882;2022-11-20T14:24:41;1.40;99.90
75210;DHT22;63796;53.136;14.882;2022-11-20T14:27:19;1.40;99.90
75210;DHT22;63796;53.136;14.882;2022-11-20T14:29:49;1.40;99.90
75210;DHT22;63796;53.136;14.882;2022-11-20T14:32:18;1.40;99.90
75210;DHT22;63796;53.136;14.882;2022-11-20T14:34:48;1.30;99.90
75210;DHT22;63796;53.136;14.882;2022-11-20T14:37:24;1.30;99.90
75210;DHT22;63796;53.136;14.882;2022-11-20T14:39:57;1.30;99.90
75210;DHT22;63796;53.136;14.882;2022-11-20T14:42:26;1.30;99.90
75210;DHT22;63796;53.136;14.882;2022-11-20T14:44:57;1.30;99.90
75210;DHT22;63796;53.136;14.882;2022-11-20T14:47:27;1.30;99.90
75210;DHT22;63796;53.136;14.882;2022-11-20T14:49:57;1.30;99.90
75210;DHT22;63796;53.136;14.882;2022-11-20T14:52:27;1.30;99.90
75210;DHT22;63796;53.136;14.882;2022-11-20T14:54:56;1.30;99.90
75210;DHT22;63796;53.136;14.882;2022-11-20T14:57:29;1.30;99.90
75210;DHT22;63796;53.136;14.882;2022-11-20T15:02:47;1.40;99.90
75210;DHT22;63796;53.136;14.882;2022-11-20T15:05:17;1.40;99.90
75210;DHT22;63796;53.136;14.882;2022-11-20T15:07:48;1.30;99.90
75210;DHT22;63796;53.136;14.882;2022-11-20T15:10:25;1.30;99.90
75210;DHT22;63796;53.136;14.882;2022-11-20T15:12:55;1.30;99.90
75210;DHT22;63796;53.136;14.882;2022-11-20T15:15:35;1.30;99.90
75210;DHT22;63796;53.136;14.882;2022-11-20T15:18:01;1.30;99.90
75210;DHT22;63796;53.136;14.882;2022-11-20T15:20:31;1.40;99.90
75210;DHT22;63796;53.136;14.882;2022-11-20T15:22:59;1.40;99.90
75210;DHT22;63796;53.136;14.882;2022-11-20T15:25:26;1.40;99.90
75210;DHT22;63796;53.136;14.882;2022-11-20T15:27:57;1.40;99.90
75210;DHT22;63796;53.136;14.882;2022-11-20T15:30:24;1.50;99.90
75210;DHT22;63796;53.136;14.882;2022-11-20T15:32:51;1.40;99.90
75210;DHT22;63796;53.136;14.882;2022-11-20T15:35:18;1.40;99.90
75210;DHT22;63796;53.136;14.882;2022-11-20T15:37:45;1.50;99.90
75210;DHT22;63796;53.136;14.882;2022-11-20T15:40:12;1.50;99.90
75210;DHT22;63796;53.136;14.882;2022-11-20T15:42:39;1.40;99.90
75210;DHT22;63796;53.136;14.882;2022-11-20T15:45:08;1.50;99.90
75210;DHT22;63796;53.136;14.882;2022-11-20T15:47:35;1.50;99.90
75210;DHT22;63796;53.136;14.882;2022-11-20T15:50:02;1.60;99.90
75210;DHT22;63796;53.136;14.882;2022-11-20T15:52:30;1.60;99.90
75210;DHT22;63796;53.136;14.882;2022-11-20T15:54:56;1.60;99.90
75210;DHT22;63796;53.136;14.882;2022-11-20T15:57:23;1.60;99.90
75210;DHT22;63796;53.136;14.882;2022-11-20T15:59:51;1.60;99.90
75210;DHT22;63796;53.136;14.882;2022-11-20T16:02:17;1.60;99.90
75210;DHT22;63796;53.136;14.882;2022-11-20T16:04:44;1.60;99.90
75210;DHT22;63796;53.136;14.882;2022-11-20T16:07:11;1.50;99.90
75210;DHT22;63796;53.136;14.882;2022-11-20T16:09:39;1.60;99.90
75210;DHT22;63796;53.136;14.882;2022-11-20T16:12:08;1.60;99.90
75210;DHT22;63796;53.136;14.882;2022-11-20T16:14:38;1.60;99.90
75210;DHT22;63796;53.136;14.882;2022-11-20T16:17:23;1.70;99.90
75210;DHT22;63796;53.136;14.882;2022-11-20T16:19:51;1.60;99.90
75210;DHT22;63796;53.136;14.882;2022-11-20T16:22:18;1.70;99.90
75210;DHT22;63796;53.136;14.882;2022-11-20T16:24:45;1.70;99.90
75210;DHT22;63796;53.136;14.882;2022-11-20T16:27:12;1.70;99.90
75210;DHT22;63796;53.136;14.882;2022-11-20T16:29:39;1.60;99.90
75210;DHT22;63796;53.136;14.882;2022-11-20T16:32:06;1.60;99.90
75210;DHT22;63796;53.136;14.882;2022-11-20T16:34:33;1.60;99.90
75210;DHT22;63796;53.136;14.882;2022-11-20T16:36:59;1.60;99.90
75210;DHT22;63796;53.136;14.882;2022-11-20T16:39:26;1.60;99.90
75210;DHT22;63796;53.136;14.882;2022-11-20T16:41:53;1.60;99.90
75210;DHT22;63796;53.136;14.882;2022-11-20T16:44:20;1.70;99.90
75210;DHT22;63796;53.136;14.882;2022-11-20T16:46:51;1.70;99.90
75210;DHT22;63796;53.136;14.882;2022-11-20T16:49:16;1.60;99.90
75210;DHT22;63796;53.136;14.882;2022-11-20T16:51:43;1.60;99.90
75210;DHT22;63796;53.136;14.882;2022-11-20T16:54:10;1.60;99.90
75210;DHT22;63796;53.136;14.882;2022-11-20T16:56:37;1.60;99.90
75210;DHT22;63796;53.136;14.882;2022-11-20T16:59:05;1.60;99.90
75210;DHT22;63796;53.136;14.882;2022-11-20T17:01:32;1.60;99.90
75210;DHT22;63796;53.136;14.882;2022-11-20T17:04:03;1.60;99.90
75210;DHT22;63796;53.136;14.882;2022-11-20T17:06:34;1.60;99.90
75210;DHT22;63796;53.136;14.882;2022-11-20T17:09:03;1.60;99.90
75210;DHT22;63796;53.136;14.882;2022-11-20T17:11:30;1.60;99.90
75210;DHT22;63796;53.136;14.882;2022-11-20T17:13:58;1.70;99.90
75210;DHT22;63796;53.136;14.882;2022-11-20T17:16:29;1.60;99.90
75210;DHT22;63796;53.136;14.882;2022-11-20T17:18:57;1.60;99.90
75210;DHT22;63796;53.136;14.882;2022-11-20T17:21:29;1.60;99.90
75210;DHT22;63796;53.136;14.882;2022-11-20T17:23:55;1.60;99.90
75210;DHT22;63796;53.136;14.882;2022-11-20T17:26:22;1.60;99.90
75210;DHT22;63796;53.136;14.882;2022-11-20T17:28:57;1.60;99.90
